sensor_id;sensor_type;location;lat;lon;timestamp;P1;durP1;ratioP1;P2;durP2;ratioP2
7001;SDS011;3541;53.230;10.518;2022-12-07T00:01:35;16.40;;;10.83;;
7001;SDS011;3541;53.230;10.518;2022-12-07T00:04:05;16.97;;;10.20;;
7001;SDS011;3541;53.230;10.518;2022-12-07T00:06:35;15.97;;;10.53;;
7001;SDS011;3541;53.230;10.518;2022-12-07T00:09:03;15.17;;;10.77;;
7001;SDS011;3541;53.230;10.518;2022-12-07T00:11:31;14.90;;;10.47;;
7001;SDS011;3541;53.230;10.518;2022-12-07T00:13:58;14.73;;;10.17;;
7001;SDS011;3541;53.230;10.518;2022-12-07T00:16:28;14.80;;;9.87;;
7001;SDS011;3541;53.230;10.518;2022-12-07T00:18:56;17.80;;;10.47;;
7001;SDS011;3541;53.230;10.518;2022-12-07T00:21:25;15.50;;;10.90;;
7001;SDS011;3541;53.230;10.518;2022-12-07T00:23:53;13.83;;;9.50;;
7001;SDS011;3541;53.230;10.518;2022-12-07T00:26:21;15.33;;;9.73;;
7001;SDS011;3541;53.230;10.518;2022-12-07T00:28:50;15.57;;;10.47;;
7001;SDS011;3541;53.230;10.518;2022-12-07T00:31:19;13.97;;;9.67;;
7001;SDS011;3541;53.230;10.518;2022-12-07T00:33:47;14.23;;;10.43;;
7001;SDS011;3541;53.230;10.518;2022-12-07T00:36:14;14.27;;;10.37;;
7001;SDS011;3541;53.230;10.518;2022-12-07T00:38:43;14.23;;;9.70;;
7001;SDS011;3541;53.230;10.518;2022-12-07T00:41:11;14.57;;;10.40;;
7001;SDS011;3541;53.230;10.518;2022-12-07T00:43:39;13.63;;;9.67;;
7001;SDS011;3541;53.230;10.518;2022-12-07T00:46:06;13.93;;;9.33;;
7001;SDS011;3541;53.230;10.518;2022-12-07T00:48:34;15.30;;;9.57;;
7001;SDS011;3541;53.230;10.518;2022-12-07T00:51:01;14.00;;;9.83;;
7001;SDS011;3541;53.230;10.518;2022-12-07T00:53:28;13.87;;;9.47;;
7001;SDS011;3541;53.230;10.518;2022-12-07T00:55:56;14.00;;;9.33;;
7001;SDS011;3541;53.230;10.518;2022-12-07T00:58:23;14.53;;;9.23;;
7001;SDS011;3541;53.230;10.518;2022-12-07T01:00:49;18.03;;;10.00;;
7001;SDS011;3541;53.230;10.518;2022-12-07T01:03:16;14.93;;;9.90;;
7001;SDS011;3541;53.230;10.518;2022-12-07T01:05:49;14.63;;;9.67;;
7001;SDS011;3541;53.230;10.518;2022-12-07T01:08:16;14.63;;;9.63;;
7001;SDS011;3541;53.230;10.518;2022-12-07T01:10:43;13.77;;;9.80;;
7001;SDS011;3541;53.230;10.518;2022-12-07T01:13:11;15.67;;;10.43;;
7001;SDS011;3541;53.230;10.518;2022-12-07T01:15:38;15.67;;;10.30;;
7001;SDS011;3541;53.230;10.518;2022-12-07T01:18:05;17.67;;;9.80;;
7001;SDS011;3541;53.230;10.518;2022-12-07T01:20:32;16.10;;;9.97;;
7001;SDS011;3541;53.230;10.518;2022-12-07T01:22:58;15.73;;;9.23;;
7001;SDS011;3541;53.230;10.518;2022-12-07T01:25:25;15.80;;;9.83;;
7001;SDS011;3541;53.230;10.518;2022-12-07T01:27:52;16.97;;;9.77;;
7001;SDS011;3541;53.230;10.518;2022-12-07T01:30:19;13.83;;;9.77;;
7001;SDS011;3541;53.230;10.518;2022-12-07T01:32:46;15.93;;;9.47;;
7001;SDS011;3541;53.230;10.518;2022-12-07T01:35:13;16.03;;;9.17;;
7001;SDS011;3541;53.230;10.518;2022-12-07T01:37:39;14.87;;;8.77;;
7001;SDS011;3541;53.230;10.518;2022-12-07T01:40:07;13.77;;;8.90;;
7001;SDS011;3541;53.230;10.518;2022-12-07T01:42:34;15.93;;;9.37;;
7001;SDS011;3541;53.230;10.518;2022-12-07T01:48:04;16.90;;;9.73;;
7001;SDS011;3541;53.230;10.518;2022-12-07T01:50:33;12.00;;;8.33;;
7001;SDS011;3541;53.230;10.518;2022-12-07T01:53:01;13.30;;;9.63;;
7001;SDS011;3541;53.230;10.518;2022-12-07T01:55:30;15.53;;;9.17;;
7001;SDS011;3541;53.230;10.518;2022-12-07T01:57:57;14.57;;;9.30;;
7001;SDS011;3541;53.230;10.518;2022-12-07T02:00:24;14.97;;;9.53;;
7001;SDS011;3541;53.230;10.518;2022-12-07T02:02:53;17.77;;;9.60;;
7001;SDS011;3541;53.230;10.518;2022-12-07T02:05:25;17.00;;;9.13;;
7001;SDS011;3541;53.230;10.518;2022-12-07T02:07:55;14.47;;;9.33;;
7001;SDS011;3541;53.230;10.518;2022-12-07T02:10:23;12.47;;;8.83;;
7001;SDS011;3541;53.230;10.518;2022-12-07T02:12:54;17.20;;;9.87;;
7001;SDS011;3541;53.230;10.518;2022-12-07T02:15:25;16.93;;;9.93;;
7001;SDS011;3541;53.230;10.518;2022-12-07T02:18:00;16.63;;;9.70;;
7001;SDS011;3541;53.230;10.518;2022-12-07T02:20:33;15.70;;;9.17;;
7001;SDS011;3541;53.230;10.518;2022-12-07T02:23:18;14.40;;;8.80;;
7001;SDS011;3541;53.230;10.518;2022-12-07T02:26:04;16.30;;;9.17;;
7001;SDS011;3541;53.230;10.518;2022-12-07T02:28:51;13.10;;;8.43;;
7001;SDS011;3541;53.230;10.518;2022-12-07T02:31:27;15.40;;;8.10;;
7001;SDS011;3541;53.230;10.518;2022-12-07T02:33:57;12.73;;;8.60;;
7001;SDS011;3541;53.230;10.518;2022-12-07T02:36:32;12.70;;;8.40;;
7001;SDS011;3541;53.230;10.518;2022-12-07T02:39:06;13.47;;;8.50;;
7001;SDS011;3541;53.230;10.518;2022-12-07T02:41:39;12.30;;;8.93;;
7001;SDS011;3541;53.230;10.518;2022-12-07T02:44:12;17.37;;;9.03;;
7001;SDS011;3541;53.230;10.518;2022-12-07T02:46:42;15.57;;;8.93;;
7001;SDS011;3541;53.230;10.518;2022-12-07T02:49:13;14.03;;;8.67;;
7001;SDS011;3541;53.230;10.518;2022-12-07T02:51:40;13.53;;;8.87;;
7001;SDS011;3541;53.230;10.518;2022-12-07T02:54:09;15.97;;;9.00;;
7001;SDS011;3541;53.230;10.518;2022-12-07T02:56:39;14.00;;;8.40;;
7001;SDS011;3541;53.230;10.518;2022-12-07T02:59:16;12.10;;;8.33;;
7001;SDS011;3541;53.230;10.518;2022-12-07T03:01:52;12.87;;;8.33;;
7001;SDS011;3541;53.230;10.518;2022-12-07T03:04:33;14.03;;;8.27;;
7001;SDS011;3541;53.230;10.518;2022-12-07T03:07:10;11.07;;;7.40;;
7001;SDS011;3541;53.230;10.518;2022-12-07T03:09:45;11.40;;;7.73;;
7001;SDS011;3541;53.230;10.518;2022-12-07T03:12:18;14.17;;;7.87;;
7001;SDS011;3541;53.230;10.518;2022-12-07T03:14:49;12.43;;;6.83;;
7001;SDS011;3541;53.230;10.518;2022-12-07T03:17:23;9.53;;;6.43;;
7001;SDS011;3541;53.230;10.518;2022-12-07T03:19:54;11.13;;;7.13;;
7001;SDS011;3541;53.230;10.518;2022-12-07T03:22:24;10.43;;;6.43;;
7001;SDS011;3541;53.230;10.518;2022-12-07T03:24:58;12.90;;;6.47;;
7001;SDS011;3541;53.230;10.518;2022-12-07T03:27:27;12.40;;;6.13;;
7001;SDS011;3541;53.230;10.518;2022-12-07T03:30:00;10.47;;;6.33;;
7001;SDS011;3541;53.230;10.518;2022-12-07T03:32:31;9.77;;;5.63;;
7001;SDS011;3541;53.230;10.518;2022-12-07T03:35:03;9.30;;;4.83;;
7001;SDS011;3541;53.230;10.518;2022-12-07T03:37:36;8.93;;;5.40;;
7001;SDS011;3541;53.230;10.518;2022-12-07T03:40:07;9.23;;;5.30;;
7001;SDS011;3541;53.230;10.518;2022-12-07T03:42:41;10.90;;;5.70;;
7001;SDS011;3541;53.230;10.518;2022-12-07T03:45:09;8.13;;;5.20;;
7001;SDS011;3541;53.230;10.518;2022-12-07T03:47:37;11.07;;;5.33;;
7001;SDS011;3541;53.230;10.518;2022-12-07T03:50:13;8.77;;;5.07;;
7001;SDS011;3541;53.230;10.518;2022-12-07T03:52:45;10.50;;;5.20;;
7001;SDS011;3541;53.230;10.518;2022-12-07T03:55:16;10.83;;;5.27;;
7001;SDS011;3541;53.230;10.518;2022-12-07T03:57:49;10.00;;;5.03;;
7001;SDS011;3541;53.230;10.518;2022-12-07T04:00:21;9.27;;;5.00;;
7001;SDS011;3541;53.230;10.518;2022-12-07T04:02:50;8.60;;;3.90;;
7001;SDS011;3541;53.230;10.518;2022-12-07T04:05:17;9.30;;;4.90;;
7001;SDS011;3541;53.230;10.518;2022-12-07T04:07:44;8.90;;;4.60;;
7001;SDS011;3541;53.230;10.518;2022-12-07T04:10:11;8.67;;;4.10;;
7001;SDS011;3541;53.230;10.518;2022-12-07T04:12:38;10.57;;;4.77;;
7001;SDS011;3541;53.230;10.518;2022-12-07T04:15:05;8.57;;;4.80;;
7001;SDS011;3541;53.230;10.518;2022-12-07T04:17:34;8.23;;;4.13;;
7001;SDS011;3541;53.230;10.518;2022-12-07T04:20:01;8.10;;;4.17;;
7001;SDS011;3541;53.230;10.518;2022-12-07T04:22:28;7.90;;;4.30;;
7001;SDS011;3541;53.230;10.518;2022-12-07T04:24:55;6.80;;;3.70;;
7001;SDS011;3541;53.230;10.518;2022-12-07T04:27:22;6.00;;;3.97;;
7001;SDS011;3541;53.230;10.518;2022-12-07T04:29:48;5.77;;;3.70;;
7001;SDS011;3541;53.230;10.518;2022-12-07T04:32:15;5.37;;;3.70;;
7001;SDS011;3541;53.230;10.518;2022-12-07T04:34:43;9.00;;;4.00;;
7001;SDS011;3541;53.230;10.518;2022-12-07T04:37:09;5.67;;;3.67;;
7001;SDS011;3541;53.230;10.518;2022-12-07T04:39:36;8.33;;;4.53;;
7001;SDS011;3541;53.230;10.518;2022-12-07T04:42:03;6.47;;;3.93;;
7001;SDS011;3541;53.230;10.518;2022-12-07T04:44:30;8.77;;;4.40;;
7001;SDS011;3541;53.230;10.518;2022-12-07T04:46:56;5.97;;;4.10;;
7001;SDS011;3541;53.230;10.518;2022-12-07T04:49:23;9.00;;;4.77;;
7001;SDS011;3541;53.230;10.518;2022-12-07T04:51:52;6.30;;;4.00;;
7001;SDS011;3541;53.230;10.518;2022-12-07T04:54:18;6.87;;;4.20;;
7001;SDS011;3541;53.230;10.518;2022-12-07T04:56:45;9.00;;;4.47;;
7001;SDS011;3541;53.230;10.518;2022-12-07T04:59:12;9.97;;;4.77;;
7001;SDS011;3541;53.230;10.518;2022-12-07T05:01:39;6.47;;;4.30;;
7001;SDS011;3541;53.230;10.518;2022-12-07T05:04:06;12.20;;;4.17;;
7001;SDS011;3541;53.230;10.518;2022-12-07T05:06:33;8.23;;;4.40;;
7001;SDS011;3541;53.230;10.518;2022-12-07T05:09:02;10.17;;;4.47;;
7001;SDS011;3541;53.230;10.518;2022-12-07T05:11:29;6.33;;;4.43;;
7001;SDS011;3541;53.230;10.518;2022-12-07T05:14:06;6.83;;;4.00;;
7001;SDS011;3541;53.230;10.518;2022-12-07T05:16:34;5.33;;;3.30;;
7001;SDS011;3541;53.230;10.518;2022-12-07T05:19:01;7.10;;;3.73;;
7001;SDS011;3541;53.230;10.518;2022-12-07T05:21:28;9.53;;;4.03;;
7001;SDS011;3541;53.230;10.518;2022-12-07T05:23:54;7.93;;;3.30;;
7001;SDS011;3541;53.230;10.518;2022-12-07T05:26:22;4.40;;;3.17;;
7001;SDS011;3541;53.230;10.518;2022-12-07T05:28:50;4.93;;;3.40;;
7001;SDS011;3541;53.230;10.518;2022-12-07T05:31:17;5.70;;;3.47;;
7001;SDS011;3541;53.230;10.518;2022-12-07T05:33:44;7.80;;;3.77;;
7001;SDS011;3541;53.230;10.518;2022-12-07T05:36:11;6.83;;;3.47;;
7001;SDS011;3541;53.230;10.518;2022-12-07T05:38:38;4.23;;;3.43;;
7001;SDS011;3541;53.230;10.518;2022-12-07T05:41:05;5.03;;;3.30;;
7001;SDS011;3541;53.230;10.518;2022-12-07T05:43:54;4.93;;;2.93;;
7001;SDS011;3541;53.230;10.518;2022-12-07T05:46:21;4.30;;;3.23;;
7001;SDS011;3541;53.230;10.518;2022-12-07T05:48:47;5.43;;;3.20;;
7001;SDS011;3541;53.230;10.518;2022-12-07T05:51:14;6.63;;;3.43;;
7001;SDS011;3541;53.230;10.518;2022-12-07T05:53:40;5.37;;;3.20;;
7001;SDS011;3541;53.230;10.518;2022-12-07T05:56:07;8.47;;;3.53;;
7001;SDS011;3541;53.230;10.518;2022-12-07T05:58:34;6.17;;;3.70;;
7001;SDS011;3541;53.230;10.518;2022-12-07T06:01:19;8.77;;;3.37;;
7001;SDS011;3541;53.230;10.518;2022-12-07T06:03:46;8.40;;;3.03;;
7001;SDS011;3541;53.230;10.518;2022-12-07T06:06:12;6.23;;;2.70;;
7001;SDS011;3541;53.230;10.518;2022-12-07T06:08:39;6.57;;;2.80;;
7001;SDS011;3541;53.230;10.518;2022-12-07T06:11:05;6.53;;;2.97;;
7001;SDS011;3541;53.230;10.518;2022-12-07T06:13:49;5.43;;;2.90;;
7001;SDS011;3541;53.230;10.518;2022-12-07T06:16:16;5.37;;;3.20;;
7001;SDS011;3541;53.230;10.518;2022-12-07T06:18:44;4.83;;;2.70;;
7001;SDS011;3541;53.230;10.518;2022-12-07T06:21:10;6.70;;;2.80;;
7001;SDS011;3541;53.230;10.518;2022-12-07T06:23:37;5.60;;;2.70;;
7001;SDS011;3541;53.230;10.518;2022-12-07T06:26:04;6.07;;;2.90;;
7001;SDS011;3541;53.230;10.518;2022-12-07T06:28:30;4.73;;;2.57;;
7001;SDS011;3541;53.230;10.518;2022-12-07T06:30:57;4.53;;;2.40;;
7001;SDS011;3541;53.230;10.518;2022-12-07T06:33:24;5.07;;;2.67;;
7001;SDS011;3541;53.230;10.518;2022-12-07T06:35:52;3.23;;;2.77;;
7001;SDS011;3541;53.230;10.518;2022-12-07T06:38:19;3.83;;;2.60;;
7001;SDS011;3541;53.230;10.518;2022-12-07T06:40:46;3.33;;;2.57;;
7001;SDS011;3541;53.230;10.518;2022-12-07T06:43:13;7.47;;;2.97;;
7001;SDS011;3541;53.230;10.518;2022-12-07T06:45:40;5.23;;;2.87;;
7001;SDS011;3541;53.230;10.518;2022-12-07T06:48:06;6.37;;;3.27;;
7001;SDS011;3541;53.230;10.518;2022-12-07T06:50:33;3.80;;;2.73;;
7001;SDS011;3541;53.230;10.518;2022-12-07T06:53:01;4.70;;;2.93;;
7001;SDS011;3541;53.230;10.518;2022-12-07T06:55:27;5.47;;;3.07;;
7001;SDS011;3541;53.230;10.518;2022-12-07T06:57:54;5.77;;;2.93;;
7001;SDS011;3541;53.230;10.518;2022-12-07T07:00:21;6.87;;;3.00;;
7001;SDS011;3541;53.230;10.518;2022-12-07T07:02:48;5.83;;;2.93;;
7001;SDS011;3541;53.230;10.518;2022-12-07T07:05:14;5.63;;;2.97;;
7001;SDS011;3541;53.230;10.518;2022-12-07T07:07:41;5.67;;;2.93;;
7001;SDS011;3541;53.230;10.518;2022-12-07T07:10:09;4.90;;;3.17;;
7001;SDS011;3541;53.230;10.518;2022-12-07T07:12:36;4.60;;;2.90;;
7001;SDS011;3541;53.230;10.518;2022-12-07T07:15:03;5.63;;;2.93;;
7001;SDS011;3541;53.230;10.518;2022-12-07T07:17:30;5.77;;;3.00;;
7001;SDS011;3541;53.230;10.518;2022-12-07T07:19:57;8.03;;;2.77;;
7001;SDS011;3541;53.230;10.518;2022-12-07T07:22:23;4.00;;;2.30;;
7001;SDS011;3541;53.230;10.518;2022-12-07T07:24:50;3.10;;;2.50;;
7001;SDS011;3541;53.230;10.518;2022-12-07T07:27:18;4.83;;;2.60;;
7001;SDS011;3541;53.230;10.518;2022-12-07T07:29:44;5.90;;;3.00;;
7001;SDS011;3541;53.230;10.518;2022-12-07T07:32:11;4.67;;;2.80;;
7001;SDS011;3541;53.230;10.518;2022-12-07T07:34:38;3.53;;;2.60;;
7001;SDS011;3541;53.230;10.518;2022-12-07T07:37:05;5.70;;;2.87;;
7001;SDS011;3541;53.230;10.518;2022-12-07T07:39:32;3.47;;;2.67;;
7001;SDS011;3541;53.230;10.518;2022-12-07T07:41:58;4.63;;;2.50;;
7001;SDS011;3541;53.230;10.518;2022-12-07T07:44:26;4.60;;;2.20;;
7001;SDS011;3541;53.230;10.518;2022-12-07T07:46:53;3.47;;;2.30;;
7001;SDS011;3541;53.230;10.518;2022-12-07T07:49:19;6.73;;;2.63;;
7001;SDS011;3541;53.230;10.518;2022-12-07T07:51:46;2.60;;;2.30;;
7001;SDS011;3541;53.230;10.518;2022-12-07T07:54:13;4.77;;;2.50;;
7001;SDS011;3541;53.230;10.518;2022-12-07T07:56:39;4.03;;;2.47;;
7001;SDS011;3541;53.230;10.518;2022-12-07T07:59:06;4.97;;;2.30;;
7001;SDS011;3541;53.230;10.518;2022-12-07T08:01:34;3.77;;;2.37;;
7001;SDS011;3541;53.230;10.518;2022-12-07T08:04:01;4.80;;;2.27;;
7001;SDS011;3541;53.230;10.518;2022-12-07T08:06:27;6.60;;;2.20;;
7001;SDS011;3541;53.230;10.518;2022-12-07T08:08:54;4.77;;;2.30;;
7001;SDS011;3541;53.230;10.518;2022-12-07T08:11:22;5.13;;;2.23;;
7001;SDS011;3541;53.230;10.518;2022-12-07T08:13:49;3.17;;;2.47;;
7001;SDS011;3541;53.230;10.518;2022-12-07T08:16:16;6.37;;;2.50;;
7001;SDS011;3541;53.230;10.518;2022-12-07T08:18:44;3.00;;;2.30;;
7001;SDS011;3541;53.230;10.518;2022-12-07T08:21:11;4.73;;;2.50;;
7001;SDS011;3541;53.230;10.518;2022-12-07T08:23:39;4.90;;;2.53;;
7001;SDS011;3541;53.230;10.518;2022-12-07T08:26:06;2.83;;;2.53;;
7001;SDS011;3541;53.230;10.518;2022-12-07T08:28:34;3.23;;;2.53;;
7001;SDS011;3541;53.230;10.518;2022-12-07T08:31:01;4.33;;;2.63;;
7001;SDS011;3541;53.230;10.518;2022-12-07T08:33:29;3.87;;;2.20;;
7001;SDS011;3541;53.230;10.518;2022-12-07T08:36:00;3.67;;;2.47;;
7001;SDS011;3541;53.230;10.518;2022-12-07T08:38:27;4.63;;;2.17;;
7001;SDS011;3541;53.230;10.518;2022-12-07T08:40:54;5.63;;;2.70;;
7001;SDS011;3541;53.230;10.518;2022-12-07T08:43:21;2.80;;;2.10;;
7001;SDS011;3541;53.230;10.518;2022-12-07T08:45:48;5.70;;;2.77;;
7001;SDS011;3541;53.230;10.518;2022-12-07T08:48:21;2.70;;;2.20;;
7001;SDS011;3541;53.230;10.518;2022-12-07T08:50:49;3.47;;;1.70;;
7001;SDS011;3541;53.230;10.518;2022-12-07T08:53:18;2.37;;;2.07;;
7001;SDS011;3541;53.230;10.518;2022-12-07T08:55:44;4.93;;;2.33;;
7001;SDS011;3541;53.230;10.518;2022-12-07T08:58:12;3.03;;;2.20;;
7001;SDS011;3541;53.230;10.518;2022-12-07T09:00:39;3.43;;;2.10;;
7001;SDS011;3541;53.230;10.518;2022-12-07T09:03:06;3.33;;;1.93;;
7001;SDS011;3541;53.230;10.518;2022-12-07T09:05:32;3.60;;;2.40;;
7001;SDS011;3541;53.230;10.518;2022-12-07T09:08:00;4.63;;;2.43;;
7001;SDS011;3541;53.230;10.518;2022-12-07T09:10:29;3.97;;;2.10;;
7001;SDS011;3541;53.230;10.518;2022-12-07T09:12:56;3.67;;;2.60;;
7001;SDS011;3541;53.230;10.518;2022-12-07T09:15:25;5.13;;;2.60;;
7001;SDS011;3541;53.230;10.518;2022-12-07T09:17:52;6.50;;;2.37;;
7001;SDS011;3541;53.230;10.518;2022-12-07T09:20:18;3.07;;;2.20;;
7001;SDS011;3541;53.230;10.518;2022-12-07T09:22:45;7.80;;;2.43;;
7001;SDS011;3541;53.230;10.518;2022-12-07T09:25:12;2.93;;;2.60;;
7001;SDS011;3541;53.230;10.518;2022-12-07T09:27:40;3.37;;;2.10;;
7001;SDS011;3541;53.230;10.518;2022-12-07T09:30:07;5.53;;;2.30;;
7001;SDS011;3541;53.230;10.518;2022-12-07T09:32:34;4.00;;;1.90;;
7001;SDS011;3541;53.230;10.518;2022-12-07T09:35:01;6.20;;;2.30;;
7001;SDS011;3541;53.230;10.518;2022-12-07T09:37:28;2.93;;;2.00;;
7001;SDS011;3541;53.230;10.518;2022-12-07T09:39:56;3.77;;;2.20;;
7001;SDS011;3541;53.230;10.518;2022-12-07T09:42:27;7.10;;;2.20;;
7001;SDS011;3541;53.230;10.518;2022-12-07T09:44:59;5.43;;;1.90;;
7001;SDS011;3541;53.230;10.518;2022-12-07T09:47:26;3.90;;;1.87;;
7001;SDS011;3541;53.230;10.518;2022-12-07T09:49:54;5.53;;;1.93;;
7001;SDS011;3541;53.230;10.518;2022-12-07T09:52:26;3.53;;;1.87;;
7001;SDS011;3541;53.230;10.518;2022-12-07T09:54:54;3.50;;;1.80;;
7001;SDS011;3541;53.230;10.518;2022-12-07T09:57:25;4.27;;;1.97;;
7001;SDS011;3541;53.230;10.518;2022-12-07T09:59:55;4.47;;;1.90;;
7001;SDS011;3541;53.230;10.518;2022-12-07T10:02:35;2.23;;;1.90;;
7001;SDS011;3541;53.230;10.518;2022-12-07T10:05:04;3.80;;;1.90;;
7001;SDS011;3541;53.230;10.518;2022-12-07T10:07:32;5.73;;;2.00;;
7001;SDS011;3541;53.230;10.518;2022-12-07T10:09:58;4.53;;;1.87;;
7001;SDS011;3541;53.230;10.518;2022-12-07T10:12:25;5.80;;;1.87;;
7001;SDS011;3541;53.230;10.518;2022-12-07T10:14:53;6.50;;;1.93;;
7001;SDS011;3541;53.230;10.518;2022-12-07T10:17:33;6.50;;;1.93;;
7001;SDS011;3541;53.230;10.518;2022-12-07T10:20:17;3.37;;;1.90;;
7001;SDS011;3541;53.230;10.518;2022-12-07T10:22:55;4.27;;;1.90;;
7001;SDS011;3541;53.230;10.518;2022-12-07T10:25:26;4.20;;;2.20;;
7001;SDS011;3541;53.230;10.518;2022-12-07T10:27:59;2.40;;;1.80;;
7001;SDS011;3541;53.230;10.518;2022-12-07T10:30:27;6.57;;;2.30;;
7001;SDS011;3541;53.230;10.518;2022-12-07T10:32:56;5.07;;;1.93;;
7001;SDS011;3541;53.230;10.518;2022-12-07T10:35:24;5.77;;;2.50;;
7001;SDS011;3541;53.230;10.518;2022-12-07T10:37:53;4.43;;;2.23;;
7001;SDS011;3541;53.230;10.518;2022-12-07T10:40:29;8.50;;;2.20;;
7001;SDS011;3541;53.230;10.518;2022-12-07T10:43:05;4.43;;;2.13;;
7001;SDS011;3541;53.230;10.518;2022-12-07T10:45:43;4.87;;;2.00;;
7001;SDS011;3541;53.230;10.518;2022-12-07T10:48:27;3.53;;;1.80;;
7001;SDS011;3541;53.230;10.518;2022-12-07T10:51:02;3.53;;;1.80;;
7001;SDS011;3541;53.230;10.518;2022-12-07T10:53:40;4.83;;;1.90;;
7001;SDS011;3541;53.230;10.518;2022-12-07T10:56:19;2.83;;;1.63;;
7001;SDS011;3541;53.230;10.518;2022-12-07T10:59:01;5.37;;;1.70;;
7001;SDS011;3541;53.230;10.518;2022-12-07T11:01:41;3.00;;;1.27;;
7001;SDS011;3541;53.230;10.518;2022-12-07T11:04:21;9.77;;;3.50;;
7001;SDS011;3541;53.230;10.518;2022-12-07T11:06:57;3.43;;;1.57;;
7001;SDS011;3541;53.230;10.518;2022-12-07T11:09:35;3.53;;;1.30;;
7001;SDS011;3541;53.230;10.518;2022-12-07T11:12:21;2.77;;;1.80;;
7001;SDS011;3541;53.230;10.518;2022-12-07T11:14:58;4.23;;;2.10;;
7001;SDS011;3541;53.230;10.518;2022-12-07T11:17:32;3.37;;;1.80;;
7001;SDS011;3541;53.230;10.518;2022-12-07T11:20:05;3.67;;;1.60;;
7001;SDS011;3541;53.230;10.518;2022-12-07T11:22:48;2.47;;;1.30;;
7001;SDS011;3541;53.230;10.518;2022-12-07T11:25:24;2.90;;;1.37;;
7001;SDS011;3541;53.230;10.518;2022-12-07T11:28:03;4.57;;;1.60;;
7001;SDS011;3541;53.230;10.518;2022-12-07T11:30:46;3.07;;;1.20;;
7001;SDS011;3541;53.230;10.518;2022-12-07T11:33:18;4.33;;;1.30;;
7001;SDS011;3541;53.230;10.518;2022-12-07T11:35:57;2.00;;;1.47;;
7001;SDS011;3541;53.230;10.518;2022-12-07T11:38:37;4.87;;;1.83;;
7001;SDS011;3541;53.230;10.518;2022-12-07T11:41:08;3.13;;;1.40;;
7001;SDS011;3541;53.230;10.518;2022-12-07T11:43:40;3.90;;;2.00;;
7001;SDS011;3541;53.230;10.518;2022-12-07T11:46:16;3.43;;;1.20;;
7001;SDS011;3541;53.230;10.518;2022-12-07T11:48:45;1.20;;;1.10;;
7001;SDS011;3541;53.230;10.518;2022-12-07T11:51:19;2.50;;;1.50;;
7001;SDS011;3541;53.230;10.518;2022-12-07T11:53:49;4.90;;;1.30;;
7001;SDS011;3541;53.230;10.518;2022-12-07T11:56:21;3.03;;;1.43;;
7001;SDS011;3541;53.230;10.518;2022-12-07T11:58:51;5.00;;;1.73;;
7001;SDS011;3541;53.230;10.518;2022-12-07T12:01:26;4.40;;;1.30;;
7001;SDS011;3541;53.230;10.518;2022-12-07T12:04:03;3.17;;;1.50;;
7001;SDS011;3541;53.230;10.518;2022-12-07T12:06:40;1.10;;;1.00;;
7001;SDS011;3541;53.230;10.518;2022-12-07T12:09:10;4.97;;;1.57;;
7001;SDS011;3541;53.230;10.518;2022-12-07T12:11:44;3.50;;;1.47;;
7001;SDS011;3541;53.230;10.518;2022-12-07T12:14:24;3.77;;;1.60;;
7001;SDS011;3541;53.230;10.518;2022-12-07T12:19:59;3.93;;;1.50;;
7001;SDS011;3541;53.230;10.518;2022-12-07T12:22:32;2.77;;;1.40;;
7001;SDS011;3541;53.230;10.518;2022-12-07T12:25:03;5.10;;;1.73;;
7001;SDS011;3541;53.230;10.518;2022-12-07T12:27:33;4.20;;;1.87;;
7001;SDS011;3541;53.230;10.518;2022-12-07T12:30:02;4.53;;;1.70;;
7001;SDS011;3541;53.230;10.518;2022-12-07T12:32:33;4.93;;;1.87;;
7001;SDS011;3541;53.230;10.518;2022-12-07T12:35:26;3.23;;;1.40;;
7001;SDS011;3541;53.230;10.518;2022-12-07T12:38:19;3.47;;;1.77;;
7001;SDS011;3541;53.230;10.518;2022-12-07T12:40:58;5.93;;;1.80;;
7001;SDS011;3541;53.230;10.518;2022-12-07T12:43:44;3.67;;;1.70;;
7001;SDS011;3541;53.230;10.518;2022-12-07T12:55:19;8.03;;;1.93;;
7001;SDS011;3541;53.230;10.518;2022-12-07T13:04:17;8.73;;;2.60;;
7001;SDS011;3541;53.230;10.518;2022-12-07T13:06:50;6.23;;;1.90;;
7001;SDS011;3541;53.230;10.518;2022-12-07T13:09:19;7.30;;;1.60;;
7001;SDS011;3541;53.230;10.518;2022-12-07T13:11:50;5.53;;;1.67;;
7001;SDS011;3541;53.230;10.518;2022-12-07T13:14:41;4.27;;;1.70;;
7001;SDS011;3541;53.230;10.518;2022-12-07T13:20:41;3.60;;;1.80;;
7001;SDS011;3541;53.230;10.518;2022-12-07T13:23:10;6.47;;;1.80;;
7001;SDS011;3541;53.230;10.518;2022-12-07T13:25:41;3.73;;;1.73;;
7001;SDS011;3541;53.230;10.518;2022-12-07T13:28:16;3.60;;;1.77;;
7001;SDS011;3541;53.230;10.518;2022-12-07T13:30:45;4.40;;;1.70;;
7001;SDS011;3541;53.230;10.518;2022-12-07T13:33:18;9.03;;;2.00;;
7001;SDS011;3541;53.230;10.518;2022-12-07T13:35:45;6.77;;;2.80;;
7001;SDS011;3541;53.230;10.518;2022-12-07T13:38:19;6.53;;;2.20;;
7001;SDS011;3541;53.230;10.518;2022-12-07T13:41:00;3.03;;;1.60;;
7001;SDS011;3541;53.230;10.518;2022-12-07T13:43:50;5.57;;;2.00;;
7001;SDS011;3541;53.230;10.518;2022-12-07T13:46:20;5.30;;;1.97;;
7001;SDS011;3541;53.230;10.518;2022-12-07T13:48:52;7.03;;;2.07;;
7001;SDS011;3541;53.230;10.518;2022-12-07T13:51:21;3.30;;;2.00;;
7001;SDS011;3541;53.230;10.518;2022-12-07T13:53:50;7.67;;;2.13;;
7001;SDS011;3541;53.230;10.518;2022-12-07T13:56:20;7.00;;;2.80;;
7001;SDS011;3541;53.230;10.518;2022-12-07T13:58:49;8.53;;;3.20;;
7001;SDS011;3541;53.230;10.518;2022-12-07T14:01:16;6.37;;;2.37;;
7001;SDS011;3541;53.230;10.518;2022-12-07T14:03:43;5.83;;;2.20;;
7001;SDS011;3541;53.230;10.518;2022-12-07T14:06:17;3.67;;;1.63;;
7001;SDS011;3541;53.230;10.518;2022-12-07T14:08:47;9.23;;;2.03;;
7001;SDS011;3541;53.230;10.518;2022-12-07T14:11:15;6.03;;;2.00;;
7001;SDS011;3541;53.230;10.518;2022-12-07T14:13:51;6.07;;;2.63;;
7001;SDS011;3541;53.230;10.518;2022-12-07T14:16:25;7.90;;;2.77;;
7001;SDS011;3541;53.230;10.518;2022-12-07T14:18:53;8.20;;;2.50;;
7001;SDS011;3541;53.230;10.518;2022-12-07T14:21:22;7.83;;;3.10;;
7001;SDS011;3541;53.230;10.518;2022-12-07T14:26:36;10.20;;;4.23;;
7001;SDS011;3541;53.230;10.518;2022-12-07T14:29:20;7.90;;;5.87;;
7001;SDS011;3541;53.230;10.518;2022-12-07T14:31:59;6.90;;;3.27;;
7001;SDS011;3541;53.230;10.518;2022-12-07T14:34:58;8.23;;;6.00;;
7001;SDS011;3541;53.230;10.518;2022-12-07T14:37:28;7.20;;;2.23;;
7001;SDS011;3541;53.230;10.518;2022-12-07T14:39:55;7.80;;;2.37;;
7001;SDS011;3541;53.230;10.518;2022-12-07T14:42:23;6.20;;;3.40;;
7001;SDS011;3541;53.230;10.518;2022-12-07T14:44:54;7.47;;;2.40;;
7001;SDS011;3541;53.230;10.518;2022-12-07T14:47:21;6.30;;;3.33;;
7001;SDS011;3541;53.230;10.518;2022-12-07T14:49:48;9.67;;;5.07;;
7001;SDS011;3541;53.230;10.518;2022-12-07T14:52:15;6.80;;;3.00;;
7001;SDS011;3541;53.230;10.518;2022-12-07T14:54:45;7.43;;;2.60;;
7001;SDS011;3541;53.230;10.518;2022-12-07T14:57:12;7.73;;;2.53;;
7001;SDS011;3541;53.230;10.518;2022-12-07T14:59:39;11.17;;;5.60;;
7001;SDS011;3541;53.230;10.518;2022-12-07T15:02:08;10.63;;;6.60;;
7001;SDS011;3541;53.230;10.518;2022-12-07T15:04:36;8.40;;;3.67;;
7001;SDS011;3541;53.230;10.518;2022-12-07T15:07:03;6.87;;;3.10;;
7001;SDS011;3541;53.230;10.518;2022-12-07T15:09:32;6.83;;;3.77;;
7001;SDS011;3541;53.230;10.518;2022-12-07T15:11:59;6.40;;;4.73;;
7001;SDS011;3541;53.230;10.518;2022-12-07T15:14:25;6.93;;;2.50;;
7001;SDS011;3541;53.230;10.518;2022-12-07T15:16:52;8.80;;;3.40;;
7001;SDS011;3541;53.230;10.518;2022-12-07T15:19:21;8.90;;;3.90;;
7001;SDS011;3541;53.230;10.518;2022-12-07T15:21:50;7.13;;;3.10;;
7001;SDS011;3541;53.230;10.518;2022-12-07T15:24:17;6.83;;;3.60;;
7001;SDS011;3541;53.230;10.518;2022-12-07T15:26:44;9.43;;;4.87;;
7001;SDS011;3541;53.230;10.518;2022-12-07T15:29:11;3.43;;;2.23;;
7001;SDS011;3541;53.230;10.518;2022-12-07T15:31:39;6.00;;;3.07;;
7001;SDS011;3541;53.230;10.518;2022-12-07T15:34:06;4.37;;;2.60;;
7001;SDS011;3541;53.230;10.518;2022-12-07T15:36:34;5.43;;;4.17;;
7001;SDS011;3541;53.230;10.518;2022-12-07T15:39:01;4.70;;;2.50;;
7001;SDS011;3541;53.230;10.518;2022-12-07T15:41:28;5.00;;;2.43;;
7001;SDS011;3541;53.230;10.518;2022-12-07T15:43:55;10.07;;;3.97;;